sensor_id;sensor_type;location;lat;lon;timestamp;temperature;humidity
24326;DHT22;12448;45.532;5.290;2023-04-24T00:00:08;12.80;96.00
24326;DHT22;12448;45.532;5.290;2023-04-24T00:02:34;12.80;96.00
24326;DHT22;12448;45.532;5.290;2023-04-24T00:05:04;12.80;96.00
24326;DHT22;12448;45.532;5.290;2023-04-24T00:07:30;12.90;96.10
24326;DHT22;12448;45.532;5.290;2023-04-24T00:09:57;12.80;96.00
24326;DHT22;12448;45.532;5.290;2023-04-24T00:12:23;12.80;96.00
24326;DHT22;12448;45.532;5.290;2023-04-24T00:14:49;12.90;96.10
24326;DHT22;12448;45.532;5.290;2023-04-24T00:17:15;12.80;96.00
24326;DHT22;12448;45.532;5.290;2023-04-24T00:19:41;12.80;96.00
24326;DHT22;12448;45.532;5.290;2023-04-24T00:22:06;12.80;96.00
24326;DHT22;12448;45.532;5.290;2023-04-24T00:24:32;12.80;96.10
24326;DHT22;12448;45.532;5.290;2023-04-24T00:26:58;12.80;96.00
24326;DHT22;12448;45.532;5.290;2023-04-24T00:29:24;12.70;96.00
24326;DHT22;12448;45.532;5.290;2023-04-24T00:31:50;12.80;96.10
24326;DHT22;12448;45.532;5.290;2023-04-24T00:34:16;12.80;96.10
24326;DHT22;12448;45.532;5.290;2023-04-24T00:36:41;12.70;96.00
24326;DHT22;12448;45.532;5.290;2023-04-24T00:39:07;12.80;96.00
24326;DHT22;12448;45.532;5.290;2023-04-24T00:41:35;12.70;96.00
24326;DHT22;12448;45.532;5.290;2023-04-24T00:44:01;12.70;96.00
24326;DHT22;12448;45.532;5.290;2023-04-24T00:46:36;12.70;96.00
24326;DHT22;12448;45.532;5.290;2023-04-24T00:49:02;12.60;96.00
24326;DHT22;12448;45.532;5.290;2023-04-24T00:51:28;12.80;96.00
24326;DHT22;12448;45.532;5.290;2023-04-24T00:53:53;12.80;96.00
24326;DHT22;12448;45.532;5.290;2023-04-24T00:56:19;12.60;95.90
24326;DHT22;12448;45.532;5.290;2023-04-24T00:58:45;12.60;95.90
24326;DHT22;12448;45.532;5.290;2023-04-24T01:01:11;12.70;96.00
24326;DHT22;12448;45.532;5.290;2023-04-24T01:03:37;12.60;95.90
24326;DHT22;12448;45.532;5.290;2023-04-24T01:06:03;12.60;95.90
24326;DHT22;12448;45.532;5.290;2023-04-24T01:08:29;12.70;96.10
24326;DHT22;12448;45.532;5.290;2023-04-24T01:10:57;12.90;96.50
24326;DHT22;12448;45.532;5.290;2023-04-24T01:13:23;12.60;96.00
24326;DHT22;12448;45.532;5.290;2023-04-24T01:15:48;12.60;96.00
24326;DHT22;12448;45.532;5.290;2023-04-24T01:18:15;12.80;96.00
24326;DHT22;12448;45.532;5.290;2023-04-24T01:20:42;12.60;96.00
24326;DHT22;12448;45.532;5.290;2023-04-24T01:23:09;12.60;96.00
24326;DHT22;12448;45.532;5.290;2023-04-24T01:25:36;12.60;96.00
24326;DHT22;12448;45.532;5.290;2023-04-24T01:28:02;12.60;96.10
24326;DHT22;12448;45.532;5.290;2023-04-24T01:30:28;12.60;96.10
24326;DHT22;12448;45.532;5.290;2023-04-24T01:32:54;12.60;96.10
24326;DHT22;12448;45.532;5.290;2023-04-24T01:35:20;12.60;96.10
24326;DHT22;12448;45.532;5.290;2023-04-24T01:37:46;12.60;96.10
24326;DHT22;12448;45.532;5.290;2023-04-24T01:40:12;12.60;96.00
24326;DHT22;12448;45.532;5.290;2023-04-24T01:42:38;12.60;96.00
24326;DHT22;12448;45.532;5.290;2023-04-24T01:45:09;12.60;96.00
24326;DHT22;12448;45.532;5.290;2023-04-24T01:47:35;12.60;96.00
24326;DHT22;12448;45.532;5.290;2023-04-24T01:50:04;12.70;96.00
24326;DHT22;12448;45.532;5.290;2023-04-24T01:52:31;12.70;95.80
24326;DHT22;12448;45.532;5.290;2023-04-24T01:55:03;12.60;95.70
24326;DHT22;12448;45.532;5.290;2023-04-24T01:57:30;12.60;95.70
24326;DHT22;12448;45.532;5.290;2023-04-24T01:59:55;12.60;95.80
24326;DHT22;12448;45.532;5.290;2023-04-24T02:02:21;13.00;95.90
24326;DHT22;12448;45.532;5.290;2023-04-24T02:04:49;12.60;95.70
24326;DHT22;12448;45.532;5.290;2023-04-24T02:07:15;12.60;95.70
24326;DHT22;12448;45.532;5.290;2023-04-24T02:09:41;12.60;95.70
24326;DHT22;12448;45.532;5.290;2023-04-24T02:12:07;12.60;95.70
24326;DHT22;12448;45.532;5.290;2023-04-24T02:14:33;12.60;95.70
24326;DHT22;12448;45.532;5.290;2023-04-24T02:16:58;12.60;95.80
24326;DHT22;12448;45.532;5.290;2023-04-24T02:19:24;12.60;95.80
24326;DHT22;12448;45.532;5.290;2023-04-24T02:21:50;12.60;95.70
24326;DHT22;12448;45.532;5.290;2023-04-24T02:24:15;12.70;95.70
24326;DHT22;12448;45.532;5.290;2023-04-24T02:26:41;12.60;95.60
24326;DHT22;12448;45.532;5.290;2023-04-24T02:29:07;12.70;95.50
24326;DHT22;12448;45.532;5.290;2023-04-24T02:31:33;12.60;95.40
24326;DHT22;12448;45.532;5.290;2023-04-24T02:33:59;12.60;95.40
24326;DHT22;12448;45.532;5.290;2023-04-24T02:36:25;12.60;95.20
24326;DHT22;12448;45.532;5.290;2023-04-24T02:38:50;12.90;95.40
24326;DHT22;12448;45.532;5.290;2023-04-24T02:41:16;12.60;95.20
24326;DHT22;12448;45.532;5.290;2023-04-24T02:43:42;12.50;95.20
24326;DHT22;12448;45.532;5.290;2023-04-24T02:46:08;12.50;95.30
24326;DHT22;12448;45.532;5.290;2023-04-24T02:48:33;12.50;95.20
24326;DHT22;12448;45.532;5.290;2023-04-24T02:50:59;12.50;95.20
24326;DHT22;12448;45.532;5.290;2023-04-24T02:53:25;12.40;95.20
24326;DHT22;12448;45.532;5.290;2023-04-24T02:55:51;12.40;95.20
24326;DHT22;12448;45.532;5.290;2023-04-24T02:58:16;12.40;95.30
24326;DHT22;12448;45.532;5.290;2023-04-24T03:00:42;12.40;95.30
24326;DHT22;12448;45.532;5.290;2023-04-24T03:03:09;12.30;95.40
24326;DHT22;12448;45.532;5.290;2023-04-24T03:05:35;12.30;95.40
24326;DHT22;12448;45.532;5.290;2023-04-24T03:08:00;12.30;95.40
24326;DHT22;12448;45.532;5.290;2023-04-24T03:10:26;12.30;95.40
24326;DHT22;12448;45.532;5.290;2023-04-24T03:12:52;12.30;95.40
24326;DHT22;12448;45.532;5.290;2023-04-24T03:15:17;12.30;95.40
24326;DHT22;12448;45.532;5.290;2023-04-24T03:17:43;12.30;95.40
24326;DHT22;12448;45.532;5.290;2023-04-24T03:20:09;11.90;95.30
24326;DHT22;12448;45.532;5.290;2023-04-24T03:22:35;12.30;95.40
24326;DHT22;12448;45.532;5.290;2023-04-24T03:25:01;12.30;95.40
24326;DHT22;12448;45.532;5.290;2023-04-24T03:27:26;12.30;95.40
24326;DHT22;12448;45.532;5.290;2023-04-24T03:29:52;12.30;95.40
24326;DHT22;12448;45.532;5.290;2023-04-24T03:32:23;12.30;95.50
24326;DHT22;12448;45.532;5.290;2023-04-24T03:34:50;12.30;95.40
24326;DHT22;12448;45.532;5.290;2023-04-24T03:37:16;12.30;95.40
24326;DHT22;12448;45.532;5.290;2023-04-24T03:39:42;12.40;95.40
24326;DHT22;12448;45.532;5.290;2023-04-24T03:42:08;12.30;95.40
24326;DHT22;12448;45.532;5.290;2023-04-24T03:44:34;12.40;95.50
24326;DHT22;12448;45.532;5.290;2023-04-24T03:47:00;12.40;95.50
24326;DHT22;12448;45.532;5.290;2023-04-24T03:49:26;12.40;95.60
24326;DHT22;12448;45.532;5.290;2023-04-24T03:51:52;12.50;95.80
24326;DHT22;12448;45.532;5.290;2023-04-24T03:54:18;12.30;95.70
24326;DHT22;12448;45.532;5.290;2023-04-24T03:56:45;12.40;95.70
24326;DHT22;12448;45.532;5.290;2023-04-24T03:59:11;12.30;95.70
24326;DHT22;12448;45.532;5.290;2023-04-24T04:01:37;12.40;95.80
24326;DHT22;12448;45.532;5.290;2023-04-24T04:04:03;12.30;95.80
24326;DHT22;12448;45.532;5.290;2023-04-24T04:06:29;12.30;95.90
24326;DHT22;12448;45.532;5.290;2023-04-24T04:08:57;12.30;95.90
24326;DHT22;12448;45.532;5.290;2023-04-24T04:11:23;12.30;96.00
24326;DHT22;12448;45.532;5.290;2023-04-24T04:13:48;12.30;95.90
24326;DHT22;12448;45.532;5.290;2023-04-24T04:16:14;12.30;95.80
24326;DHT22;12448;45.532;5.290;2023-04-24T04:18:51;12.30;95.90
24326;DHT22;12448;45.532;5.290;2023-04-24T04:21:16;12.30;95.80
24326;DHT22;12448;45.532;5.290;2023-04-24T04:23:42;12.30;95.80
24326;DHT22;12448;45.532;5.290;2023-04-24T04:26:08;12.30;96.10
24326;DHT22;12448;45.532;5.290;2023-04-24T04:28:34;12.30;95.80
24326;DHT22;12448;45.532;5.290;2023-04-24T04:31:01;12.30;95.80
24326;DHT22;12448;45.532;5.290;2023-04-24T04:33:27;12.20;95.90
24326;DHT22;12448;45.532;5.290;2023-04-24T04:35:52;12.20;96.00
24326;DHT22;12448;45.532;5.290;2023-04-24T04:38:19;12.10;96.10
24326;DHT22;12448;45.532;5.290;2023-04-24T04:40:45;12.10;96.20
24326;DHT22;12448;45.532;5.290;2023-04-24T04:43:11;12.00;96.40
24326;DHT22;12448;45.532;5.290;2023-04-24T04:45:39;11.50;96.50
24326;DHT22;12448;45.532;5.290;2023-04-24T04:48:05;11.90;96.70
24326;DHT22;12448;45.532;5.290;2023-04-24T04:50:35;11.90;97.00
24326;DHT22;12448;45.532;5.290;2023-04-24T04:53:00;11.80;97.10
24326;DHT22;12448;45.532;5.290;2023-04-24T04:55:26;11.70;97.30
24326;DHT22;12448;45.532;5.290;2023-04-24T04:57:52;11.70;97.40
24326;DHT22;12448;45.532;5.290;2023-04-24T05:00:18;11.60;97.70
24326;DHT22;12448;45.532;5.290;2023-04-24T05:02:43;11.60;98.00
24326;DHT22;12448;45.532;5.290;2023-04-24T05:05:09;11.50;98.20
24326;DHT22;12448;45.532;5.290;2023-04-24T05:07:35;11.50;98.40
24326;DHT22;12448;45.532;5.290;2023-04-24T05:10:01;11.50;98.60
24326;DHT22;12448;45.532;5.290;2023-04-24T05:12:30;11.40;98.90
24326;DHT22;12448;45.532;5.290;2023-04-24T05:14:55;11.30;99.10
24326;DHT22;12448;45.532;5.290;2023-04-24T05:17:21;11.10;99.40
24326;DHT22;12448;45.532;5.290;2023-04-24T05:19:47;11.10;99.70
24326;DHT22;12448;45.532;5.290;2023-04-24T05:22:13;11.20;99.80
24326;DHT22;12448;45.532;5.290;2023-04-24T05:24:39;11.20;99.90
24326;DHT22;12448;45.532;5.290;2023-04-24T05:27:05;11.10;99.90
24326;DHT22;12448;45.532;5.290;2023-04-24T05:29:31;11.20;99.90
24326;DHT22;12448;45.532;5.290;2023-04-24T05:31:57;11.10;99.90
24326;DHT22;12448;45.532;5.290;2023-04-24T05:34:23;11.10;99.90
24326;DHT22;12448;45.532;5.290;2023-04-24T05:36:49;11.00;99.90
24326;DHT22;12448;45.532;5.290;2023-04-24T05:39:16;11.00;99.90
24326;DHT22;12448;45.532;5.290;2023-04-24T05:41:45;11.10;99.90
24326;DHT22;12448;45.532;5.290;2023-04-24T05:44:10;11.10;99.90
24326;DHT22;12448;45.532;5.290;2023-04-24T05:46:36;11.10;99.90
24326;DHT22;12448;45.532;5.290;2023-04-24T05:49:08;11.10;99.90
24326;DHT22;12448;45.532;5.290;2023-04-24T05:51:36;11.20;99.90
24326;DHT22;12448;45.532;5.290;2023-04-24T05:54:02;11.20;99.90
24326;DHT22;12448;45.532;5.290;2023-04-24T05:56:28;11.30;99.90
24326;DHT22;12448;45.532;5.290;2023-04-24T05:58:54;11.30;99.90
24326;DHT22;12448;45.532;5.290;2023-04-24T06:01:20;11.40;99.80
24326;DHT22;12448;45.532;5.290;2023-04-24T06:03:46;11.40;99.70
24326;DHT22;12448;45.532;5.290;2023-04-24T06:06:12;11.40;99.70
24326;DHT22;12448;45.532;5.290;2023-04-24T06:08:38;11.50;99.70
24326;DHT22;12448;45.532;5.290;2023-04-24T06:11:03;11.50;99.70
24326;DHT22;12448;45.532;5.290;2023-04-24T06:13:29;11.50;99.70
24326;DHT22;12448;45.532;5.290;2023-04-24T06:15:55;11.60;99.70
24326;DHT22;12448;45.532;5.290;2023-04-24T06:18:20;11.90;99.80
24326;DHT22;12448;45.532;5.290;2023-04-24T06:20:46;11.80;99.60
24326;DHT22;12448;45.532;5.290;2023-04-24T06:23:12;11.80;99.40
24326;DHT22;12448;45.532;5.290;2023-04-24T06:25:38;11.80;99.40
24326;DHT22;12448;45.532;5.290;2023-04-24T06:28:04;11.80;99.40
24326;DHT22;12448;45.532;5.290;2023-04-24T06:30:30;11.80;99.30
24326;DHT22;12448;45.532;5.290;2023-04-24T06:32:56;11.90;99.50
24326;DHT22;12448;45.532;5.290;2023-04-24T06:35:21;11.90;99.10
24326;DHT22;12448;45.532;5.290;2023-04-24T06:37:47;11.90;99.10
24326;DHT22;12448;45.532;5.290;2023-04-24T06:40:13;11.90;98.80
24326;DHT22;12448;45.532;5.290;2023-04-24T06:42:39;12.00;98.50
24326;DHT22;12448;45.532;5.290;2023-04-24T06:45:05;12.00;98.40
24326;DHT22;12448;45.532;5.290;2023-04-24T06:47:31;12.00;98.30
24326;DHT22;12448;45.532;5.290;2023-04-24T06:50:00;12.00;98.20
24326;DHT22;12448;45.532;5.290;2023-04-24T06:52:26;12.00;98.20
24326;DHT22;12448;45.532;5.290;2023-04-24T06:54:51;12.00;97.80
24326;DHT22;12448;45.532;5.290;2023-04-24T06:57:18;11.80;97.40
24326;DHT22;12448;45.532;5.290;2023-04-24T06:59:43;11.80;97.20
24326;DHT22;12448;45.532;5.290;2023-04-24T07:02:09;11.60;97.60
24326;DHT22;12448;45.532;5.290;2023-04-24T07:04:35;11.70;96.90
24326;DHT22;12448;45.532;5.290;2023-04-24T07:07:02;11.80;97.10
24326;DHT22;12448;45.532;5.290;2023-04-24T07:09:28;11.80;96.70
24326;DHT22;12448;45.532;5.290;2023-04-24T07:11:54;11.80;96.80
24326;DHT22;12448;45.532;5.290;2023-04-24T07:14:22;11.70;96.90
24326;DHT22;12448;45.532;5.290;2023-04-24T07:16:48;11.80;97.20
24326;DHT22;12448;45.532;5.290;2023-04-24T07:19:13;12.20;97.30
24326;DHT22;12448;45.532;5.290;2023-04-24T07:21:39;11.90;97.10
24326;DHT22;12448;45.532;5.290;2023-04-24T07:24:05;12.10;97.60
24326;DHT22;12448;45.532;5.290;2023-04-24T07:26:34;11.50;96.80
24326;DHT22;12448;45.532;5.290;2023-04-24T07:29:00;11.90;96.90
24326;DHT22;12448;45.532;5.290;2023-04-24T07:31:26;11.80;96.90
24326;DHT22;12448;45.532;5.290;2023-04-24T07:33:52;11.90;96.90
24326;DHT22;12448;45.532;5.290;2023-04-24T07:36:17;11.90;96.30
24326;DHT22;12448;45.532;5.290;2023-04-24T07:38:47;12.00;96.50
24326;DHT22;12448;45.532;5.290;2023-04-24T07:41:13;12.20;96.40
24326;DHT22;12448;45.532;5.290;2023-04-24T07:43:40;12.10;95.00
24326;DHT22;12448;45.532;5.290;2023-04-24T07:46:06;12.10;94.80
24326;DHT22;12448;45.532;5.290;2023-04-24T07:48:32;12.00;94.00
24326;DHT22;12448;45.532;5.290;2023-04-24T07:50:58;12.00;94.40
24326;DHT22;12448;45.532;5.290;2023-04-24T07:53:23;11.90;94.00
24326;DHT22;12448;45.532;5.290;2023-04-24T07:55:49;12.00;94.60
24326;DHT22;12448;45.532;5.290;2023-04-24T07:58:15;12.00;94.60
24326;DHT22;12448;45.532;5.290;2023-04-24T08:00:40;12.10;94.70
24326;DHT22;12448;45.532;5.290;2023-04-24T08:03:06;12.40;94.50
24326;DHT22;12448;45.532;5.290;2023-04-24T08:05:32;12.30;95.10
24326;DHT22;12448;45.532;5.290;2023-04-24T08:07:58;12.40;94.70
24326;DHT22;12448;45.532;5.290;2023-04-24T08:10:24;12.40;95.00
24326;DHT22;12448;45.532;5.290;2023-04-24T08:12:50;12.60;95.00
24326;DHT22;12448;45.532;5.290;2023-04-24T08:15:16;12.70;94.60
24326;DHT22;12448;45.532;5.290;2023-04-24T08:17:42;12.70;94.00
24326;DHT22;12448;45.532;5.290;2023-04-24T08:20:09;12.70;93.90
24326;DHT22;12448;45.532;5.290;2023-04-24T08:22:39;12.90;94.10
24326;DHT22;12448;45.532;5.290;2023-04-24T08:25:06;13.00;93.50
24326;DHT22;12448;45.532;5.290;2023-04-24T08:27:32;13.00;92.50
24326;DHT22;12448;45.532;5.290;2023-04-24T08:29:57;13.00;92.80
24326;DHT22;12448;45.532;5.290;2023-04-24T08:32:24;13.30;93.10
24326;DHT22;12448;45.532;5.290;2023-04-24T08:34:50;13.10;93.10
24326;DHT22;12448;45.532;5.290;2023-04-24T08:37:18;13.00;92.80
24326;DHT22;12448;45.532;5.290;2023-04-24T08:39:53;13.00;92.40
24326;DHT22;12448;45.532;5.290;2023-04-24T08:42:20;12.90;91.60
24326;DHT22;12448;45.532;5.290;2023-04-24T08:44:47;12.90;91.90
24326;DHT22;12448;45.532;5.290;2023-04-24T08:47:23;13.20;92.20
24326;DHT22;12448;45.532;5.290;2023-04-24T08:49:50;12.90;91.20
24326;DHT22;12448;45.532;5.290;2023-04-24T08:52:17;12.90;91.80
24326;DHT22;12448;45.532;5.290;2023-04-24T08:54:43;13.00;92.10
24326;DHT22;12448;45.532;5.290;2023-04-24T08:57:12;13.20;91.80
24326;DHT22;12448;45.532;5.290;2023-04-24T08:59:39;13.30;91.30
24326;DHT22;12448;45.532;5.290;2023-04-24T09:02:06;13.20;90.30
24326;DHT22;12448;45.532;5.290;2023-04-24T09:04:35;13.30;90.60
24326;DHT22;12448;45.532;5.290;2023-04-24T09:07:01;13.30;90.30
24326;DHT22;12448;45.532;5.290;2023-04-24T09:09:30;13.40;90.80
24326;DHT22;12448;45.532;5.290;2023-04-24T09:12:12;13.40;90.80
24326;DHT22;12448;45.532;5.290;2023-04-24T09:14:38;13.40;90.50
24326;DHT22;12448;45.532;5.290;2023-04-24T09:17:08;13.40;90.80
24326;DHT22;12448;45.532;5.290;2023-04-24T09:19:33;13.40;90.70
24326;DHT22;12448;45.532;5.290;2023-04-24T09:21:59;13.40;90.90
24326;DHT22;12448;45.532;5.290;2023-04-24T09:24:25;13.50;90.80
24326;DHT22;12448;45.532;5.290;2023-04-24T09:26:57;13.50;90.60
24326;DHT22;12448;45.532;5.290;2023-04-24T09:29:30;13.60;90.50
24326;DHT22;12448;45.532;5.290;2023-04-24T09:31:57;13.60;90.70
24326;DHT22;12448;45.532;5.290;2023-04-24T09:34:24;13.60;90.60
24326;DHT22;12448;45.532;5.290;2023-04-24T09:36:50;13.60;90.60
24326;DHT22;12448;45.532;5.290;2023-04-24T09:39:17;13.70;90.20
24326;DHT22;12448;45.532;5.290;2023-04-24T09:41:53;13.70;89.70
24326;DHT22;12448;45.532;5.290;2023-04-24T09:44:25;13.70;90.00
24326;DHT22;12448;45.532;5.290;2023-04-24T09:46:56;13.70;89.40
24326;DHT22;12448;45.532;5.290;2023-04-24T09:52:08;13.80;89.80
24326;DHT22;12448;45.532;5.290;2023-04-24T09:54:35;13.80;88.80
24326;DHT22;12448;45.532;5.290;2023-04-24T09:57:02;13.70;88.00
24326;DHT22;12448;45.532;5.290;2023-04-24T09:59:29;13.70;87.90
24326;DHT22;12448;45.532;5.290;2023-04-24T10:01:54;13.70;87.90
24326;DHT22;12448;45.532;5.290;2023-04-24T10:04:22;13.70;86.20
24326;DHT22;12448;45.532;5.290;2023-04-24T10:06:50;13.80;86.70
24326;DHT22;12448;45.532;5.290;2023-04-24T10:09:18;13.70;84.80
24326;DHT22;12448;45.532;5.290;2023-04-24T10:11:46;13.70;84.00
24326;DHT22;12448;45.532;5.290;2023-04-24T10:14:20;14.00;84.60
24326;DHT22;12448;45.532;5.290;2023-04-24T10:16:47;13.80;85.90
24326;DHT22;12448;45.532;5.290;2023-04-24T10:19:14;13.80;84.30
24326;DHT22;12448;45.532;5.290;2023-04-24T10:21:44;13.90;84.00
24326;DHT22;12448;45.532;5.290;2023-04-24T10:24:17;14.00;85.00
24326;DHT22;12448;45.532;5.290;2023-04-24T10:26:44;14.10;85.30
24326;DHT22;12448;45.532;5.290;2023-04-24T10:29:11;14.30;85.70
24326;DHT22;12448;45.532;5.290;2023-04-24T10:31:38;14.30;85.10
24326;DHT22;12448;45.532;5.290;2023-04-24T10:34:06;14.30;84.60
24326;DHT22;12448;45.532;5.290;2023-04-24T10:36:33;14.40;84.70
24326;DHT22;12448;45.532;5.290;2023-04-24T10:39:02;14.40;83.70
24326;DHT22;12448;45.532;5.290;2023-04-24T10:41:30;14.40;82.90
24326;DHT22;12448;45.532;5.290;2023-04-24T10:44:11;14.40;83.50
24326;DHT22;12448;45.532;5.290;2023-04-24T10:50:00;14.30;82.10
24326;DHT22;12448;45.532;5.290;2023-04-24T10:52:47;14.20;83.10
24326;DHT22;12448;45.532;5.290;2023-04-24T10:58:09;14.30;81.80
24326;DHT22;12448;45.532;5.290;2023-04-24T11:00:37;14.40;81.90
24326;DHT22;12448;45.532;5.290;2023-04-24T11:06:35;14.80;83.30
24326;DHT22;12448;45.532;5.290;2023-04-24T11:09:18;14.90;82.90
24326;DHT22;12448;45.532;5.290;2023-04-24T11:12:12;15.10;79.50
24326;DHT22;12448;45.532;5.290;2023-04-24T11:17:37;15.00;77.10
24326;DHT22;12448;45.532;5.290;2023-04-24T11:20:11;14.90;76.90
24326;DHT22;12448;45.532;5.290;2023-04-24T11:22:39;14.70;74.80
24326;DHT22;12448;45.532;5.290;2023-04-24T11:25:08;14.70;77.30
24326;DHT22;12448;45.532;5.290;2023-04-24T11:27:43;14.90;79.00
24326;DHT22;12448;45.532;5.290;2023-04-24T11:30:17;15.10;79.60
24326;DHT22;12448;45.532;5.290;2023-04-24T11:32:46;15.20;78.00
24326;DHT22;12448;45.532;5.290;2023-04-24T11:37:44;15.40;78.20
24326;DHT22;12448;45.532;5.290;2023-04-24T11:40:15;15.30;77.30
24326;DHT22;12448;45.532;5.290;2023-04-24T11:42:45;15.20;77.60
24326;DHT22;12448;45.532;5.290;2023-04-24T11:45:16;15.10;78.70
24326;DHT22;12448;45.532;5.290;2023-04-24T11:47:44;15.00;78.90
24326;DHT22;12448;45.532;5.290;2023-04-24T11:50:12;15.00;79.30
24326;DHT22;12448;45.532;5.290;2023-04-24T11:52:42;15.00;79.00
24326;DHT22;12448;45.532;5.290;2023-04-24T11:57:50;14.90;78.20
24326;DHT22;12448;45.532;5.290;2023-04-24T12:02:46;14.90;76.50
24326;DHT22;12448;45.532;5.290;2023-04-24T12:07:46;15.30;78.10
24326;DHT22;12448;45.532;5.290;2023-04-24T12:10:12;15.40;77.40
24326;DHT22;12448;45.532;5.290;2023-04-24T12:12:38;15.40;75.10
24326;DHT22;12448;45.532;5.290;2023-04-24T12:15:07;15.40;71.90
24326;DHT22;12448;45.532;5.290;2023-04-24T12:17:34;15.40;73.50
24326;DHT22;12448;45.532;5.290;2023-04-24T12:23:00;15.20;72.30
24326;DHT22;12448;45.532;5.290;2023-04-24T12:25:33;15.20;74.00
24326;DHT22;12448;45.532;5.290;2023-04-24T12:30:33;15.50;75.70
24326;DHT22;12448;45.532;5.290;2023-04-24T12:33:00;15.60;76.10
24326;DHT22;12448;45.532;5.290;2023-04-24T12:35:30;15.80;73.90
24326;DHT22;12448;45.532;5.290;2023-04-24T12:38:08;16.00;74.20
24326;DHT22;12448;45.532;5.290;2023-04-24T12:40:35;16.10;73.40
24326;DHT22;12448;45.532;5.290;2023-04-24T12:43:01;16.20;73.40
24326;DHT22;12448;45.532;5.290;2023-04-24T12:45:27;16.40;73.50
24326;DHT22;12448;45.532;5.290;2023-04-24T12:47:53;16.40;68.40
24326;DHT22;12448;45.532;5.290;2023-04-24T12:50:19;16.30;69.60
24326;DHT22;12448;45.532;5.290;2023-04-24T12:52:45;16.50;70.90
24326;DHT22;12448;45.532;5.290;2023-04-24T12:55:11;16.60;70.00
24326;DHT22;12448;45.532;5.290;2023-04-24T12:57:38;16.70;70.10
24326;DHT22;12448;45.532;5.290;2023-04-24T13:00:06;16.70;67.80
24326;DHT22;12448;45.532;5.290;2023-04-24T13:02:33;16.40;66.90
24326;DHT22;12448;45.532;5.290;2023-04-24T13:04:59;16.10;68.00
24326;DHT22;12448;45.532;5.290;2023-04-24T13:07:26;16.00;69.00
24326;DHT22;12448;45.532;5.290;2023-04-24T13:09:52;16.10;69.50
24326;DHT22;12448;45.532;5.290;2023-04-24T13:12:18;16.00;69.90
24326;DHT22;12448;45.532;5.290;2023-04-24T13:14:44;16.00;69.60
24326;DHT22;12448;45.532;5.290;2023-04-24T13:17:10;16.00;65.50
24326;DHT22;12448;45.532;5.290;2023-04-24T13:19:38;16.00;67.50
24326;DHT22;12448;45.532;5.290;2023-04-24T13:22:04;16.10;68.90
24326;DHT22;12448;45.532;5.290;2023-04-24T13:24:31;16.10;68.70
24326;DHT22;12448;45.532;5.290;2023-04-24T13:26:57;16.10;67.50
24326;DHT22;12448;45.532;5.290;2023-04-24T13:29:24;16.00;66.80
24326;DHT22;12448;45.532;5.290;2023-04-24T13:31:54;16.00;67.70
24326;DHT22;12448;45.532;5.290;2023-04-24T13:34:21;16.10;67.80
24326;DHT22;12448;45.532;5.290;2023-04-24T13:36:46;16.10;68.80
24326;DHT22;12448;45.532;5.290;2023-04-24T13:39:12;16.20;69.10
24326;DHT22;12448;45.532;5.290;2023-04-24T13:41:38;16.30;69.00
24326;DHT22;12448;45.532;5.290;2023-04-24T13:44:05;16.40;67.50
24326;DHT22;12448;45.532;5.290;2023-04-24T13:46:34;16.50;67.40
24326;DHT22;12448;45.532;5.290;2023-04-24T13:49:01;16.60;67.50
24326;DHT22;12448;45.532;5.290;2023-04-24T13:51:30;16.70;66.70
24326;DHT22;12448;45.532;5.290;2023-04-24T13:53:56;16.70;67.00
24326;DHT22;12448;45.532;5.290;2023-04-24T13:56:23;16.70;66.70
24326;DHT22;12448;45.532;5.290;2023-04-24T13:58:49;16.60;65.90
24326;DHT22;12448;45.532;5.290;2023-04-24T14:01:15;16.40;66.00
24326;DHT22;12448;45.532;5.290;2023-04-24T14:03:41;16.20;62.90
24326;DHT22;12448;45.532;5.290;2023-04-24T14:06:08;16.20;66.50
24326;DHT22;12448;45.532;5.290;2023-04-24T14:08:34;16.20;64.30
24326;DHT22;12448;45.532;5.290;2023-04-24T14:11:00;16.20;63.60
24326;DHT22;12448;45.532;5.290;2023-04-24T14:13:25;16.40;64.10
24326;DHT22;12448;45.532;5.290;2023-04-24T14:15:51;16.50;64.70
24326;DHT22;12448;45.532;5.290;2023-04-24T14:18:23;16.70;65.30
24326;DHT22;12448;45.532;5.290;2023-04-24T14:20:54;16.90;65.60
24326;DHT22;12448;45.532;5.290;2023-04-24T14:24:14;17.10;66.30
24326;DHT22;12448;45.532;5.290;2023-04-24T14:26:20;17.40;66.00
24326;DHT22;12448;45.532;5.290;2023-04-24T14:28:47;17.50;65.60
24326;DHT22;12448;45.532;5.290;2023-04-24T14:31:12;17.50;64.40
24326;DHT22;12448;45.532;5.290;2023-04-24T14:33:38;17.40;65.50
24326;DHT22;12448;45.532;5.290;2023-04-24T14:36:04;17.40;65.50
24326;DHT22;12448;45.532;5.290;2023-04-24T14:38:30;17.40;65.10
24326;DHT22;12448;45.532;5.290;2023-04-24T14:40:56;17.40;65.20
24326;DHT22;12448;45.532;5.290;2023-04-24T14:43:22;17.40;63.10
24326;DHT22;12448;45.532;5.290;2023-04-24T14:45:48;17.20;63.10
24326;DHT22;12448;45.532;5.290;2023-04-24T14:48:13;17.10;61.70
24326;DHT22;12448;45.532;5.290;2023-04-24T14:50:39;17.20;64.30
24326;DHT22;12448;45.532;5.290;2023-04-24T14:53:05;17.30;65.60
24326;DHT22;12448;45.532;5.290;2023-04-24T14:55:31;17.30;64.10
24326;DHT22;12448;45.532;5.290;2023-04-24T14:57:57;17.30;62.90
24326;DHT22;12448;45.532;5.290;2023-04-24T15:00:22;17.30;64.00
24326;DHT22;12448;45.532;5.290;2023-04-24T15:02:51;17.40;63.90
24326;DHT22;12448;45.532;5.290;2023-04-24T15:05:16;17.50;64.30
24326;DHT22;12448;45.532;5.290;2023-04-24T15:07:42;17.50;64.30
24326;DHT22;12448;45.532;5.290;2023-04-24T15:10:11;17.40;63.00
24326;DHT22;12448;45.532;5.290;2023-04-24T15:12:37;17.30;63.70
24326;DHT22;12448;45.532;5.290;2023-04-24T15:15:02;17.30;65.30
24326;DHT22;12448;45.532;5.290;2023-04-24T15:17:37;17.30;65.50
24326;DHT22;12448;45.532;5.290;2023-04-24T15:20:03;17.30;65.20
24326;DHT22;12448;45.532;5.290;2023-04-24T15:22:34;17.30;65.00
24326;DHT22;12448;45.532;5.290;2023-04-24T15:25:18;17.30;65.20
24326;DHT22;12448;45.532;5.290;2023-04-24T15:27:47;17.40;65.10
24326;DHT22;12448;45.532;5.290;2023-04-24T15:30:13;17.40;64.90
24326;DHT22;12448;45.532;5.290;2023-04-24T15:32:39;17.40;64.80
24326;DHT22;12448;45.532;5.290;2023-04-24T15:35:08;17.50;64.70
24326;DHT22;12448;45.532;5.290;2023-04-24T15:37:39;17.60;64.50
24326;DHT22;12448;45.532;5.290;2023-04-24T15:40:05;17.60;63.70
24326;DHT22;12448;45.532;5.290;2023-04-24T15:42:35;17.60;63.40
24326;DHT22;12448;45.532;5.290;2023-04-24T15:45:04;17.60;63.40
24326;DHT22;12448;45.532;5.290;2023-04-24T15:47:33;17.60;64.00
24326;DHT22;12448;45.532;5.290;2023-04-24T15:49:58;17.60;63.80
24326;DHT22;12448;45.532;5.290;2023-04-24T15:52:24;17.50;63.30
24326;DHT22;12448;45.532;5.290;2023-04-24T15:54:52;17.50;63.30
24326;DHT22;12448;45.532;5.290;2023-04-24T15:57:18;17.40;64.10
24326;DHT22;12448;45.532;5.290;2023-04-24T15:59:44;17.30;62.70